createdAt,value
2023-03-04T00:02:21.218Z,99791.59
2023-03-04T00:04:54.298Z,99793.31
2023-03-04T00:07:27.271Z,99783.84
2023-03-04T00:10:00.148Z,99776.09
2023-03-04T00:12:33.703Z,99765.31
2023-03-04T00:15:08.401Z,99775.34
2023-03-04T00:17:43.380Z,99776.31
2023-03-04T00:20:16.613Z,99779.88
2023-03-04T00:22:49.579Z,99784.47
2023-03-04T00:25:22.542Z,99779.53
2023-03-04T00:27:55.765Z,99786.28
2023-03-04T00:30:29.074Z,99783.22
2023-03-04T00:33:04.346Z,99789.13
2023-03-04T00:35:37.695Z,99794.63
2023-03-04T00:38:10.655Z,99788.38
2023-03-04T00:40:43.804Z,99784.66
2023-03-04T00:43:16.954Z,99790.53
2023-03-04T00:45:49.996Z,99792.66
2023-03-04T00:48:24.718Z,99794.50
2023-03-04T00:50:57.727Z,99791.63
2023-03-04T00:53:30.644Z,99798.69
2023-03-04T00:56:03.651Z,99791.41
2023-03-04T00:58:36.740Z,99785.56
2023-03-04T01:01:09.701Z,99789.19
2023-03-04T01:03:44.146Z,99797.59
2023-03-04T01:06:17.646Z,99788.13
2023-03-04T01:08:50.798Z,99786.03
2023-03-04T01:11:23.680Z,99786.41
2023-03-04T01:13:57.249Z,99793.78
2023-03-04T01:16:31.134Z,99789.69
2023-03-04T01:19:05.647Z,99790.38
2023-03-04T01:21:38.894Z,99783.19
2023-03-04T01:24:12.390Z,99775.09
2023-03-04T01:26:45.500Z,99770.41
2023-03-04T01:29:18.538Z,99773.56
2023-03-04T01:31:51.459Z,99775.69
2023-03-04T01:34:25.985Z,99774.34
2023-03-04T01:36:58.855Z,99773.56
2023-03-04T01:39:32.133Z,99775.50
2023-03-04T01:42:05.682Z,99776.84
2023-03-04T01:44:38.871Z,99767.06
2023-03-04T01:47:11.890Z,99757.47
2023-03-04T01:49:46.841Z,99754.91
2023-03-04T01:52:19.879Z,99754.91
2023-03-04T01:54:53.211Z,99768.31
2023-03-04T01:57:27.523Z,99770.16
2023-03-04T02:00:19.077Z,99768.31
2023-03-04T02:02:53.832Z,99764.44
2023-03-04T02:05:29.248Z,99767.09
2023-03-04T02:08:02.751Z,99768.66
2023-03-04T02:10:36.429Z,99767.72
2023-03-04T02:13:10.866Z,99770.94
2023-03-04T02:15:44.362Z,99769.88
2023-03-04T02:18:18.468Z,99763.03
2023-03-04T02:20:57.600Z,99761.19
2023-03-04T02:23:35.608Z,99764.66
2023-03-04T02:26:12.505Z,99762.81
2023-03-04T02:28:45.741Z,99763.13
2023-03-04T02:31:23.527Z,99756.53
2023-03-04T02:33:58.216Z,99758.41
2023-03-04T02:36:31.901Z,99759.16
2023-03-04T02:39:06.704Z,99743.19
2023-03-04T02:41:41.483Z,99743.34
2023-03-04T02:44:17.884Z,99740.09
2023-03-04T02:46:52.213Z,99732.19
2023-03-04T02:49:26.819Z,99729.84
2023-03-04T02:52:01.980Z,99731.13
2023-03-04T02:54:35.088Z,99739.56
2023-03-04T02:57:10.402Z,99733.31
2023-03-04T02:59:43.963Z,99735.38
2023-03-04T03:02:17.194Z,99740.06
2023-03-04T03:04:50.764Z,99756.38
2023-03-04T03:07:23.900Z,99750.28
2023-03-04T03:09:56.808Z,99751.84
2023-03-04T03:12:31.988Z,99748.91
2023-03-04T03:15:06.225Z,99748.97
2023-03-04T03:17:39.953Z,99754.16
2023-03-04T03:20:14.091Z,99756.00
2023-03-04T03:22:47.179Z,99756.94
2023-03-04T03:25:20.382Z,99756.72
2023-03-04T03:27:54.741Z,99758.78
2023-03-04T03:30:27.696Z,99759.78
2023-03-04T03:33:00.622Z,99759.19
2023-03-04T03:35:33.665Z,99763.53
2023-03-04T03:38:07.103Z,99766.69
2023-03-04T03:40:40.263Z,99758.09
2023-03-04T03:43:15.198Z,99759.25
2023-03-04T03:45:48.262Z,99760.16
2023-03-04T03:48:21.404Z,99761.78
2023-03-04T03:50:54.760Z,99761.91
2023-03-04T03:53:28.235Z,99759.47
2023-03-04T03:56:01.518Z,99754.28
2023-03-04T03:58:36.101Z,99756.59
2023-03-04T04:01:09.352Z,99755.91
2023-03-04T04:03:42.537Z,99758.63
2023-03-04T04:06:15.345Z,99755.53
2023-03-04T04:08:48.278Z,99753.75
2023-03-04T04:11:21.493Z,99757.94
2023-03-04T04:13:56.899Z,99755.00
2023-03-04T04:16:30.684Z,99758.19
2023-03-04T04:19:03.835Z,99757.09
2023-03-04T04:21:37.055Z,99762.81
2023-03-04T04:24:10.473Z,99760.66
2023-03-04T04:26:44.072Z,99745.09
2023-03-04T04:29:18.757Z,99751.44
2023-03-04T04:31:51.680Z,99750.72
2023-03-04T04:34:24.881Z,99751.75
2023-03-04T04:36:57.862Z,99751.38
2023-03-04T04:39:30.880Z,99753.22
2023-03-04T04:42:03.875Z,99753.44
2023-03-04T04:44:39.127Z,99752.69
2023-03-04T04:47:12.322Z,99760.25
2023-03-04T04:49:45.387Z,99754.91
2023-03-04T04:52:18.596Z,99758.34
2023-03-04T04:54:51.558Z,99749.25
2023-03-04T04:57:24.492Z,99751.53
2023-03-04T04:59:58.879Z,99750.03
2023-03-04T05:02:36.378Z,99748.41
2023-03-04T05:05:09.773Z,99754.91
2023-03-04T05:07:42.716Z,99751.53
2023-03-04T05:10:15.724Z,99761.50
2023-03-04T05:12:49.912Z,99754.59
2023-03-04T05:15:24.953Z,99753.44
2023-03-04T05:17:58.600Z,99754.22
2023-03-04T05:20:31.737Z,99762.13
2023-03-04T05:23:05.345Z,99758.50
2023-03-04T05:25:38.410Z,99755.63
2023-03-04T05:28:12.577Z,99755.41
2023-03-04T05:30:47.736Z,99759.19
2023-03-04T05:33:21.476Z,99758.09
2023-03-04T05:35:55.177Z,99767.31
2023-03-04T05:38:28.179Z,99765.06
2023-03-04T05:41:02.066Z,99770.94
2023-03-04T05:43:36.121Z,99763.38
2023-03-04T05:46:14.484Z,99765.94
2023-03-04T05:48:47.625Z,99771.09
2023-03-04T05:51:20.994Z,99769.88
2023-03-04T05:53:54.000Z,99772.50
2023-03-04T05:56:26.978Z,99777.22
2023-03-04T05:59:00.135Z,99776.69
2023-03-04T06:01:34.523Z,99774.13
2023-03-04T06:04:07.807Z,99774.97
2023-03-04T06:06:41.149Z,99785.22
2023-03-04T06:09:14.337Z,99782.22
2023-03-04T06:11:48.990Z,99778.41
2023-03-04T06:14:21.934Z,99782.84
2023-03-04T06:16:56.689Z,99780.63
2023-03-04T06:19:29.880Z,99782.00
2023-03-04T06:22:03.152Z,99792.34
2023-03-04T06:24:37.423Z,99786.81
2023-03-04T06:27:10.534Z,99789.28
2023-03-04T06:29:43.478Z,99782.41
2023-03-04T06:32:18.052Z,99791.59
2023-03-04T06:34:51.036Z,99791.28
2023-03-04T06:37:24.136Z,99785.50
2023-03-04T06:39:57.444Z,99796.84
2023-03-04T06:42:30.767Z,99795.69
2023-03-04T06:45:04.540Z,99806.00
2023-03-04T06:47:39.165Z,99808.47
2023-03-04T06:50:13.375Z,99810.03
2023-03-04T06:52:46.996Z,99811.31
2023-03-04T06:55:21.214Z,99805.59
2023-03-04T06:57:54.499Z,99806.00
2023-03-04T07:00:28.045Z,99805.94
2023-03-04T07:03:02.539Z,99801.00
2023-03-04T07:05:35.546Z,99794.53
2023-03-04T07:08:08.714Z,99799.91
2023-03-04T07:10:41.922Z,99801.19
2023-03-04T07:13:15.465Z,99804.00
2023-03-04T07:15:49.399Z,99803.06
2023-03-04T07:18:24.574Z,99804.44
2023-03-04T07:20:57.722Z,99792.91
2023-03-04T07:23:31.232Z,99801.50
2023-03-04T07:26:05.066Z,99810.78
2023-03-04T07:28:38.465Z,99809.09
2023-03-04T07:31:12.529Z,99813.84
2023-03-04T07:33:47.167Z,99802.16
2023-03-04T07:36:20.844Z,99805.31
2023-03-04T07:38:55.195Z,99802.31
2023-03-04T07:41:29.299Z,99794.19
2023-03-04T07:44:02.451Z,99785.94
2023-03-04T07:46:36.300Z,99787.38
2023-03-04T07:49:12.979Z,99778.97
2023-03-04T07:51:46.169Z,99780.22
2023-03-04T07:54:20.217Z,99783.63
2023-03-04T07:56:53.939Z,99781.06
2023-03-04T07:59:27.397Z,99783.44
2023-03-04T08:02:00.895Z,99783.75
2023-03-04T08:04:35.391Z,99794.63
2023-03-04T08:07:08.456Z,99793.84
2023-03-04T08:09:41.664Z,99793.31
2023-03-04T08:12:16.540Z,99786.50
2023-03-04T08:14:50.252Z,99787.06
2023-03-04T08:17:23.655Z,99787.63
2023-03-04T08:19:58.546Z,99787.94
2023-03-04T08:22:31.804Z,99797.72
2023-03-04T08:25:05.194Z,99800.84
2023-03-04T08:27:38.411Z,99803.09
2023-03-04T08:30:12.215Z,99794.63
2023-03-04T08:32:45.682Z,99797.88
2023-03-04T08:35:20.732Z,99799.00
2023-03-04T08:37:53.841Z,99795.56
2023-03-04T08:40:27.357Z,99790.34
2023-03-04T08:43:00.794Z,99796.19
2023-03-04T08:45:33.905Z,99788.16
2023-03-04T08:48:07.302Z,99789.22
2023-03-04T08:50:42.142Z,99776.91
2023-03-04T08:53:16.040Z,99766.69
2023-03-04T08:55:49.842Z,99765.19
2023-03-04T08:58:23.024Z,99770.50
2023-03-04T09:00:56.122Z,99775.47
2023-03-04T09:03:29.404Z,99775.91
2023-03-04T09:06:04.573Z,99764.94
2023-03-04T09:08:38.192Z,99767.69
2023-03-04T09:11:11.489Z,99767.38
2023-03-04T09:13:45.005Z,99764.97
2023-03-04T09:16:18.749Z,99750.63
2023-03-04T09:18:52.112Z,99753.28
2023-03-04T09:21:26.838Z,99753.28
2023-03-04T09:24:00.380Z,99751.78
2023-03-04T09:26:33.710Z,99746.66
2023-03-04T09:29:06.892Z,99746.66
2023-03-04T09:31:40.172Z,99738.00
2023-03-04T09:34:14.262Z,99736.66
2023-03-04T09:36:49.964Z,99728.41
2023-03-04T09:39:24.816Z,99726.81
2023-03-04T09:41:59.186Z,99714.94
2023-03-04T09:44:33.932Z,99710.72
2023-03-04T09:47:07.897Z,99708.69
2023-03-04T09:49:42.343Z,99711.81
2023-03-04T09:52:25.064Z,99711.56
2023-03-04T09:55:05.368Z,99713.00
2023-03-04T09:57:45.389Z,99704.28
2023-03-04T10:00:20.246Z,99703.31
2023-03-04T10:03:06.749Z,99704.56
2023-03-04T10:05:42.789Z,99707.56
2023-03-04T10:08:31.896Z,99696.88
2023-03-04T10:11:07.983Z,99684.34
2023-03-04T10:13:51.766Z,99684.50
2023-03-04T10:16:27.610Z,99676.78
2023-03-04T10:19:03.645Z,99680.78
2023-03-04T10:21:40.319Z,99675.34
2023-03-04T10:24:18.063Z,99669.66
2023-03-04T10:26:53.536Z,99663.16
2023-03-04T10:29:27.374Z,99661.44
2023-03-04T10:32:00.804Z,99658.47
2023-03-04T10:34:34.047Z,99657.72
2023-03-04T10:37:08.787Z,99658.38
2023-03-04T10:39:44.449Z,99654.59
2023-03-04T10:42:37.506Z,99647.47
2023-03-04T10:45:20.600Z,99639.09
2023-03-04T10:47:54.501Z,99642.25
2023-03-04T10:50:28.325Z,99631.59
2023-03-04T10:53:01.403Z,99629.81
2023-03-04T10:55:45.122Z,99629.31
2023-03-04T10:58:19.394Z,99621.56
2023-03-04T11:01:00.593Z,99624.84
2023-03-04T11:03:35.738Z,99630.03
2023-03-04T11:06:11.941Z,99617.72
2023-03-04T11:08:45.790Z,99616.03
2023-03-04T11:11:30.004Z,99608.66
2023-03-04T11:14:09.987Z,99596.94
2023-03-04T11:16:53.222Z,99594.16
2023-03-04T11:19:30.303Z,99595.97
2023-03-04T11:22:04.294Z,99585.91
2023-03-04T11:24:38.888Z,99586.53
2023-03-04T11:27:18.272Z,99587.97
2023-03-04T11:29:56.340Z,99578.09
2023-03-04T11:32:31.130Z,99579.63
2023-03-04T11:35:09.173Z,99579.31
2023-03-04T11:37:45.320Z,99570.19
2023-03-04T11:40:24.771Z,99567.41
2023-03-04T11:43:02.855Z,99553.69
2023-03-04T11:45:45.395Z,99559.25
2023-03-04T11:48:24.459Z,99551.41
2023-03-04T11:50:59.378Z,99541.63
2023-03-04T11:53:41.574Z,99548.47
2023-03-04T11:56:22.183Z,99547.53
2023-03-04T11:59:07.192Z,99549.53
2023-03-04T12:01:46.604Z,99539.53
2023-03-04T12:04:31.137Z,99535.31
2023-03-04T12:07:14.485Z,99535.31
2023-03-04T12:09:55.632Z,99530.41
2023-03-04T12:12:36.068Z,99531.25
2023-03-04T12:15:16.776Z,99525.84
2023-03-04T12:18:00.496Z,99520.16
2023-03-04T12:20:51.348Z,99523.41
2023-03-04T12:23:39.097Z,99524.13
2023-03-04T12:26:20.817Z,99526.94
2023-03-04T12:28:58.353Z,99526.16
2023-03-04T12:31:36.338Z,99520.34
2023-03-04T12:34:21.937Z,99513.50
2023-03-04T12:36:59.871Z,99519.22
2023-03-04T12:39:34.090Z,99519.13
2023-03-04T12:42:10.421Z,99514.13
2023-03-04T12:44:47.904Z,99513.78
2023-03-04T12:47:30.201Z,99510.34
2023-03-04T12:50:25.008Z,99505.09
2023-03-04T12:53:02.232Z,99505.88
2023-03-04T12:55:37.643Z,99499.97
2023-03-04T12:58:16.257Z,99498.78
2023-03-04T13:00:53.273Z,99497.44
2023-03-04T13:03:33.705Z,99488.41
2023-03-04T13:06:10.899Z,99485.22
2023-03-04T13:08:50.654Z,99479.19
2023-03-04T13:11:47.967Z,99472.09
2023-03-04T13:14:26.352Z,99475.34
2023-03-04T13:17:01.958Z,99477.38
2023-03-04T13:19:51.038Z,99468.34
2023-03-04T13:22:36.574Z,99461.84
2023-03-04T13:25:33.839Z,99468.34
2023-03-04T13:28:12.940Z,99460.47
2023-03-04T13:31:20.617Z,99455.41
2023-03-04T13:34:00.828Z,99452.75
2023-03-04T13:36:48.928Z,99445.94
2023-03-04T13:39:30.962Z,99445.28
2023-03-04T13:42:05.173Z,99440.84
2023-03-04T13:45:02.412Z,99445.88
2023-03-04T13:47:46.752Z,99433.97
2023-03-04T13:50:29.945Z,99436.94
2023-03-04T13:53:23.841Z,99440.00
2023-03-04T13:56:09.870Z,99431.47
2023-03-04T13:58:43.056Z,99431.63
2023-03-04T14:01:23.550Z,99434.69
2023-03-04T14:03:56.621Z,99430.72
2023-03-04T14:06:30.299Z,99419.09
2023-03-04T14:09:13.870Z,99419.81
2023-03-04T14:11:49.451Z,99413.63
2023-03-04T14:14:25.438Z,99417.00
2023-03-04T14:16:59.916Z,99414.22
2023-03-04T14:19:36.103Z,99417.28
2023-03-04T14:22:21.685Z,99423.97
2023-03-04T14:24:58.624Z,99412.28
2023-03-04T14:27:35.448Z,99406.66
2023-03-04T14:30:26.121Z,99402.56
2023-03-04T14:33:10.655Z,99406.91
2023-03-04T14:35:48.623Z,99398.19
2023-03-04T14:38:24.464Z,99394.81
2023-03-04T14:41:01.749Z,99399.41
2023-03-04T14:43:37.985Z,99402.22
2023-03-04T14:46:13.715Z,99391.25
2023-03-04T14:48:48.921Z,99384.50
2023-03-04T14:51:30.309Z,99388.72
2023-03-04T14:54:03.517Z,99386.44
2023-03-04T14:56:37.506Z,99385.34
2023-03-04T14:59:14.227Z,99386.56
2023-03-04T15:01:47.425Z,99386.69
2023-03-04T15:04:21.233Z,99386.13
2023-03-04T15:06:54.786Z,99376.56
2023-03-04T15:09:28.802Z,99377.78
2023-03-04T15:12:05.392Z,99375.25
2023-03-04T15:14:48.273Z,99378.75
2023-03-04T15:17:26.256Z,99377.09
2023-03-04T15:20:04.255Z,99379.75
2023-03-04T15:22:38.375Z,99384.59
2023-03-04T15:25:15.288Z,99376.09
2023-03-04T15:27:48.874Z,99367.19
2023-03-04T15:30:24.765Z,99371.69
2023-03-04T15:32:58.740Z,99362.88
2023-03-04T15:35:33.142Z,99362.13
2023-03-04T15:38:07.462Z,99363.34
2023-03-04T15:40:43.013Z,99355.16
2023-03-04T15:43:17.081Z,99358.78
2023-03-04T15:45:52.434Z,99360.69
2023-03-04T15:48:25.851Z,99360.97
2023-03-04T15:51:00.397Z,99356.84
2023-03-04T15:53:34.845Z,99360.50
2023-03-04T15:56:09.643Z,99354.47
2023-03-04T15:58:43.282Z,99351.19
2023-03-04T16:01:18.061Z,99353.75
2023-03-04T16:03:53.406Z,99354.22
2023-03-04T16:06:28.790Z,99353.25
2023-03-04T16:09:06.882Z,99361.22
2023-03-04T16:11:44.404Z,99365.09
2023-03-04T16:14:18.704Z,99369.44
2023-03-04T16:16:53.883Z,99365.56
2023-03-04T16:19:26.892Z,99363.56
2023-03-04T16:21:59.777Z,99354.84
2023-03-04T16:24:34.315Z,99356.78
2023-03-04T16:27:07.799Z,99357.06
2023-03-04T16:29:41.608Z,99363.19
2023-03-04T16:32:16.384Z,99364.03
2023-03-04T16:34:50.444Z,99369.47
2023-03-04T16:37:23.614Z,99366.81
2023-03-04T16:39:57.428Z,99368.78
2023-03-04T16:42:30.524Z,99369.16
2023-03-04T16:45:03.782Z,99368.16
2023-03-04T16:47:38.665Z,99368.28
2023-03-04T16:50:14.645Z,99370.38
2023-03-04T16:52:48.822Z,99368.78
2023-03-04T16:55:23.968Z,99367.84
2023-03-04T16:57:57.874Z,99368.91
2023-03-04T17:00:31.292Z,99374.63
2023-03-04T17:03:05.982Z,99365.56
2023-03-04T17:05:39.008Z,99374.25
2023-03-04T17:08:12.176Z,99376.19
2023-03-04T17:10:45.167Z,99372.41
2023-03-04T17:13:19.596Z,99372.53
2023-03-04T17:15:53.200Z,99372.66
2023-03-04T17:18:28.372Z,99377.84
2023-03-04T17:21:04.994Z,99374.38
2023-03-04T17:23:37.908Z,99381.63
2023-03-04T17:26:11.109Z,99371.72
2023-03-04T17:28:45.003Z,99369.88
2023-03-04T17:31:20.012Z,99378.97
2023-03-04T17:33:54.861Z,99375.44
2023-03-04T17:36:28.073Z,99372.78
2023-03-04T17:39:01.335Z,99371.47
2023-03-04T17:41:36.307Z,99363.50
2023-03-04T17:44:09.367Z,99371.25
2023-03-04T17:46:42.497Z,99372.59
2023-03-04T17:49:17.412Z,99376.06
2023-03-04T17:51:52.597Z,99377.66
2023-03-04T17:54:26.329Z,99372.72
2023-03-04T17:57:03.026Z,99374.38
2023-03-04T17:59:39.625Z,99371.13
2023-03-04T18:02:14.898Z,99376.72
2023-03-04T18:04:52.773Z,99369.06
2023-03-04T18:07:26.255Z,99371.03
2023-03-04T18:09:59.234Z,99366.22
2023-03-04T18:12:39.428Z,99366.22
2023-03-04T18:15:14.819Z,99365.34
2023-03-04T18:17:48.596Z,99377.78
2023-03-04T18:20:23.174Z,99370.78
2023-03-04T18:22:57.633Z,99372.22
2023-03-04T18:25:30.916Z,99368.63
2023-03-04T18:28:04.402Z,99371.28
2023-03-04T18:30:39.472Z,99363.31
2023-03-04T18:33:13.273Z,99358.00
2023-03-04T18:35:47.794Z,99353.19
2023-03-04T18:38:20.875Z,99351.84
2023-03-04T18:41:00.774Z,99351.47
2023-03-04T18:43:37.376Z,99346.03
2023-03-04T18:46:11.931Z,99347.03
2023-03-04T18:48:47.412Z,99344.25
2023-03-04T18:51:22.381Z,99344.97
2023-03-04T18:53:55.846Z,99345.31
2023-03-04T18:56:38.537Z,99345.19
2023-03-04T18:59:20.060Z,99339.88
2023-03-04T19:01:55.617Z,99341.59
2023-03-04T19:04:29.726Z,99341.56
2023-03-04T19:07:04.560Z,99346.41
2023-03-04T19:09:39.631Z,99345.78
2023-03-04T19:12:15.918Z,99340.84
2023-03-04T19:14:49.994Z,99345.03
2023-03-04T19:17:25.997Z,99342.41
2023-03-04T19:20:03.196Z,99355.91
2023-03-04T19:22:39.324Z,99361.91
2023-03-04T19:25:12.918Z,99358.91
2023-03-04T19:27:46.757Z,99359.94
2023-03-04T19:30:20.432Z,99366.13
2023-03-04T19:32:55.074Z,99362.34
2023-03-04T19:35:28.694Z,99367.06
2023-03-04T19:38:03.306Z,99361.38
2023-03-04T19:40:40.350Z,99360.00
2023-03-04T19:43:13.823Z,99355.81
2023-03-04T19:45:53.524Z,99362.22
2023-03-04T19:48:26.958Z,99367.38
2023-03-04T19:50:59.974Z,99365.31
2023-03-04T19:53:35.012Z,99364.31
2023-03-04T19:56:08.396Z,99367.38
2023-03-04T19:58:41.578Z,99367.59
2023-03-04T20:01:21.369Z,99363.59
2023-03-04T20:03:55.244Z,99368.16
2023-03-04T20:06:28.870Z,99367.31
2023-03-04T20:09:03.736Z,99363.44
2023-03-04T20:11:44.298Z,99362.06
2023-03-04T20:14:29.125Z,99362.00
2023-03-04T20:17:03.422Z,99365.66
2023-03-04T20:19:36.729Z,99360.28
2023-03-04T20:22:10.024Z,99364.00
2023-03-04T20:24:44.751Z,99363.66
2023-03-04T20:27:18.455Z,99362.75
2023-03-04T20:29:51.839Z,99355.03
2023-03-04T20:32:25.072Z,99356.41
2023-03-04T20:34:58.420Z,99348.25
2023-03-04T20:37:31.469Z,99343.19
2023-03-04T20:40:06.351Z,99348.81
2023-03-04T20:42:39.349Z,99352.53
2023-03-04T20:45:12.971Z,99346.41
2023-03-04T20:47:48.707Z,99351.28
2023-03-04T20:50:22.060Z,99363.25
2023-03-04T20:52:55.072Z,99355.63
2023-03-04T20:55:30.381Z,99360.59
2023-03-04T20:58:04.541Z,99354.47
2023-03-04T21:00:38.351Z,99353.97
2023-03-04T21:03:12.209Z,99354.81
2023-03-04T21:05:45.409Z,99342.13
2023-03-04T21:08:18.395Z,99348.38
2023-03-04T21:10:52.771Z,99349.41
2023-03-04T21:13:30.152Z,99345.72
2023-03-04T21:16:04.408Z,99338.72
2023-03-04T21:18:37.825Z,99339.28
2023-03-04T21:21:12.041Z,99333.75
2023-03-04T21:23:46.667Z,99329.13
2023-03-04T21:26:22.174Z,99325.94
2023-03-04T21:28:55.755Z,99327.53
2023-03-04T21:31:30.665Z,99317.28
2023-03-04T21:34:03.891Z,99313.97
2023-03-04T21:36:37.060Z,99312.91
2023-03-04T21:39:13.497Z,99314.28
2023-03-04T21:41:48.100Z,99308.78
2023-03-04T21:44:28.579Z,99316.41
2023-03-04T21:47:07.107Z,99308.69
2023-03-04T21:49:40.563Z,99310.47
2023-03-04T21:52:13.856Z,99305.94
2023-03-04T21:54:47.747Z,99304.78
2023-03-04T21:57:22.404Z,99297.69
2023-03-04T21:59:55.865Z,99297.25
2023-03-04T22:02:28.845Z,99299.38
2023-03-04T22:05:01.993Z,99298.50
2023-03-04T22:07:36.158Z,99301.88
2023-03-04T22:10:09.388Z,99290.94
2023-03-04T22:12:45.191Z,99293.41
2023-03-04T22:15:19.291Z,99297.50
2023-03-04T22:17:52.796Z,99302.28
2023-03-04T22:20:25.843Z,99305.97
2023-03-04T22:22:58.799Z,99301.81
2023-03-04T22:25:32.377Z,99294.09
2023-03-04T22:28:07.192Z,99290.28
2023-03-04T22:30:40.480Z,99292.50
2023-03-04T22:33:13.906Z,99285.19
2023-03-04T22:35:47.072Z,99289.28
2023-03-04T22:38:20.273Z,99287.59
2023-03-04T22:40:53.307Z,99286.44
2023-03-04T22:43:27.977Z,99291.13
2023-03-04T22:46:01.817Z,99291.63
2023-03-04T22:48:35.018Z,99291.31
2023-03-04T22:51:09.855Z,99285.06
2023-03-04T22:53:43.582Z,99281.44
2023-03-04T22:56:16.839Z,99279.31
2023-03-04T22:58:51.333Z,99282.16
2023-03-04T23:01:24.550Z,99282.34
2023-03-04T23:03:57.593Z,99276.88
2023-03-04T23:06:31.580Z,99280.91
2023-03-04T23:09:05.164Z,99277.13
2023-03-04T23:11:39.488Z,99275.06
2023-03-04T23:14:14.359Z,99270.97
2023-03-04T23:16:49.301Z,99276.88
2023-03-04T23:19:22.350Z,99274.28
2023-03-04T23:21:55.978Z,99273.19
2023-03-04T23:24:29.480Z,99279.09
2023-03-04T23:27:02.469Z,99279.22
2023-03-04T23:29:36.861Z,99281.38
2023-03-04T23:32:10.342Z,99284.59
2023-03-04T23:34:43.314Z,99277.72
2023-03-04T23:37:16.203Z,99289.28
2023-03-04T23:39:49.871Z,99285.91
2023-03-04T23:42:23.490Z,99281.47
2023-03-04T23:44:57.923Z,99269.22
2023-03-04T23:47:30.908Z,99279.22
2023-03-04T23:50:06.419Z,99281.06
2023-03-04T23:52:40.362Z,99278.47
2023-03-04T23:55:16.438Z,99277.94
2023-03-04T23:57:49.696Z,99274.81
